createdAt,value
2019-05-15T00:01:49.817Z,76.77
2019-05-15T00:04:20.818Z,77.99
2019-05-15T00:06:52.612Z,77.96
2019-05-15T00:09:24.232Z,78.42
2019-05-15T00:11:55.754Z,78.40
2019-05-15T00:14:28.783Z,76.29
2019-05-15T00:16:59.419Z,76.64
2019-05-15T00:19:30.432Z,76.59
2019-05-15T00:22:02.364Z,76.40
2019-05-15T00:24:33.345Z,76.61
2019-05-15T00:27:04.148Z,79.71
2019-05-15T00:29:35.153Z,78.05
2019-05-15T00:32:05.892Z,80.34
2019-05-15T00:34:37.899Z,80.13
2019-05-15T00:37:09.127Z,81.72
2019-05-15T00:39:39.801Z,81.54
2019-05-15T00:42:10.860Z,82.28
2019-05-15T00:44:41.639Z,83.66
2019-05-15T00:47:12.364Z,82.85
2019-05-15T00:49:43.343Z,82.41
2019-05-15T00:52:14.368Z,83.37
2019-05-15T00:54:45.140Z,82.56
2019-05-15T00:57:16.116Z,82.88
2019-05-15T00:59:48.356Z,82.62
2019-05-15T01:02:19.191Z,83.12
2019-05-15T01:04:50.026Z,83.10
2019-05-15T01:07:21.080Z,84.05
2019-05-15T01:09:52.048Z,83.57
2019-05-15T01:12:22.777Z,82.80
2019-05-15T01:14:53.831Z,82.14
2019-05-15T01:17:24.797Z,81.67
2019-05-15T01:19:55.784Z,82.30
2019-05-15T01:22:28.624Z,82.71
2019-05-15T01:24:59.964Z,83.01
2019-05-15T01:27:30.676Z,83.08
2019-05-15T01:30:01.415Z,83.49
2019-05-15T01:32:33.461Z,83.52
2019-05-15T01:35:04.275Z,82.39
2019-05-15T01:37:35.004Z,82.41
2019-05-15T01:40:05.862Z,82.78
2019-05-15T01:42:38.607Z,82.74
2019-05-15T01:45:09.808Z,83.20
2019-05-15T01:47:40.536Z,84.37
2019-05-15T01:50:11.690Z,84.07
2019-05-15T01:52:42.654Z,85.32
2019-05-15T01:55:14.112Z,85.74
2019-05-15T01:57:45.086Z,86.58
2019-05-15T02:00:18.689Z,85.37
2019-05-15T02:02:49.085Z,87.00
2019-05-15T02:05:19.956Z,87.18
2019-05-15T02:07:50.675Z,87.61
2019-05-15T02:10:21.732Z,87.98
2019-05-15T02:12:52.457Z,87.96
2019-05-15T02:15:23.397Z,88.91
2019-05-15T02:17:54.604Z,88.88
2019-05-15T02:20:25.346Z,87.65
2019-05-15T02:22:56.159Z,87.20
2019-05-15T02:25:28.031Z,87.56
2019-05-15T02:27:59.118Z,87.40
2019-05-15T02:30:34.174Z,87.90
2019-05-15T02:33:02.774Z,87.70
2019-05-15T02:35:34.022Z,88.59
2019-05-15T02:38:04.826Z,87.76
2019-05-15T02:40:35.560Z,87.39
2019-05-15T02:43:09.599Z,87.75
2019-05-15T02:45:42.242Z,87.25
2019-05-15T02:48:12.430Z,86.58
2019-05-15T02:50:43.166Z,87.69
2019-05-15T02:53:14.385Z,88.05
2019-05-15T02:55:45.603Z,87.05
2019-05-15T02:58:21.454Z,86.60
2019-05-15T03:00:53.188Z,87.07
2019-05-15T03:03:21.736Z,88.37
2019-05-15T03:05:52.776Z,89.32
2019-05-15T03:08:23.924Z,89.64
2019-05-15T03:10:54.661Z,89.47
2019-05-15T03:13:25.695Z,89.42
2019-05-15T03:15:59.987Z,90.60
2019-05-15T03:18:29.643Z,90.93
2019-05-15T03:21:00.657Z,91.67
2019-05-15T03:23:31.706Z,91.52
2019-05-15T03:26:04.333Z,92.12
2019-05-15T03:28:35.356Z,92.33
2019-05-15T03:31:24.813Z,92.45
2019-05-15T03:33:45.541Z,92.14
2019-05-15T03:36:13.945Z,91.99
2019-05-15T03:38:44.769Z,92.07
2019-05-15T03:41:15.520Z,92.62
2019-05-15T03:43:49.307Z,91.33
2019-05-15T03:46:20.179Z,91.00
2019-05-15T03:48:50.977Z,90.91
2019-05-15T03:51:22.239Z,91.62
2019-05-15T03:53:53.039Z,91.06
2019-05-15T03:56:24.171Z,91.21
2019-05-15T03:58:54.899Z,91.51
2019-05-15T04:01:34.054Z,90.82
2019-05-15T04:03:59.816Z,91.11
2019-05-15T04:06:31.267Z,90.64
2019-05-15T04:09:01.991Z,90.82
2019-05-15T04:11:38.569Z,90.40
2019-05-15T04:14:10.241Z,90.84
2019-05-15T04:16:41.398Z,90.17
2019-05-15T04:19:12.605Z,90.02
2019-05-15T04:21:45.144Z,89.87
2019-05-15T04:24:18.991Z,89.02
2019-05-15T04:26:50.598Z,88.83
2019-05-15T04:29:21.552Z,88.97
2019-05-15T04:32:01.060Z,88.82
2019-05-15T04:34:24.956Z,89.36
2019-05-15T04:36:58.695Z,89.83
2019-05-15T04:39:29.582Z,89.80
2019-05-15T04:42:00.464Z,89.48
2019-05-15T04:44:31.472Z,89.39
2019-05-15T04:47:02.485Z,88.74
2019-05-15T04:49:33.507Z,89.11
2019-05-15T04:52:04.343Z,89.60
2019-05-15T04:54:35.539Z,90.23
2019-05-15T04:57:09.262Z,88.84
2019-05-15T04:59:39.434Z,89.06
2019-05-15T05:02:17.556Z,87.72
2019-05-15T05:04:42.737Z,88.27
2019-05-15T05:07:13.699Z,88.05
2019-05-15T05:09:44.424Z,88.24
2019-05-15T05:12:15.405Z,87.82
2019-05-15T05:14:48.433Z,87.32
2019-05-15T05:17:19.656Z,87.59
2019-05-15T05:19:51.461Z,87.88
2019-05-15T05:22:22.227Z,86.84
2019-05-15T05:24:53.038Z,86.17
2019-05-15T05:27:23.993Z,85.92
2019-05-15T05:29:55.027Z,84.78
2019-05-15T05:32:34.354Z,84.01
2019-05-15T05:34:58.968Z,83.64
2019-05-15T05:37:30.771Z,83.82
2019-05-15T05:40:01.811Z,82.34
2019-05-15T05:42:32.893Z,79.65
2019-05-15T05:45:03.718Z,82.20
2019-05-15T05:47:34.946Z,78.67
2019-05-15T05:50:07.964Z,78.10
2019-05-15T05:52:39.271Z,75.88
2019-05-15T05:55:10.108Z,69.59
2019-05-15T05:57:40.848Z,67.36
2019-05-15T06:00:11.748Z,71.54
2019-05-15T06:02:47.571Z,68.33
2019-05-15T06:05:15.203Z,63.58
2019-05-15T06:07:48.768Z,67.16
2019-05-15T06:10:19.553Z,66.12
2019-05-15T06:12:50.547Z,62.69
2019-05-15T06:15:21.508Z,62.07
2019-05-15T06:17:52.249Z,60.51
2019-05-15T06:20:23.295Z,61.53
2019-05-15T06:22:54.100Z,62.27
2019-05-15T06:25:24.903Z,59.67
2019-05-15T06:27:55.632Z,61.15
2019-05-15T06:30:30.733Z,58.65
2019-05-15T06:33:08.519Z,54.90
2019-05-15T06:35:33.728Z,56.50
2019-05-15T06:38:04.615Z,55.88
2019-05-15T06:40:35.365Z,55.34
2019-05-15T06:43:08.603Z,55.45
2019-05-15T06:45:40.055Z,57.56
2019-05-15T06:48:10.792Z,55.00
2019-05-15T06:50:42.304Z,54.21
2019-05-15T06:53:13.296Z,55.11
2019-05-15T06:55:44.104Z,53.43
2019-05-15T06:58:14.848Z,52.86
2019-05-15T07:00:48.420Z,51.49
2019-05-15T07:03:25.414Z,50.39
2019-05-15T07:05:51.332Z,50.77
2019-05-15T07:08:22.362Z,48.36
2019-05-15T07:10:53.561Z,47.88
2019-05-15T07:13:24.609Z,45.59
2019-05-15T07:15:55.361Z,46.94
2019-05-15T07:18:28.253Z,46.54
2019-05-15T07:20:58.568Z,44.93
2019-05-15T07:23:30.947Z,45.26
2019-05-15T07:26:01.643Z,44.87
2019-05-15T07:28:32.392Z,44.93
2019-05-15T07:31:03.159Z,44.85
2019-05-15T07:33:39.684Z,42.03
2019-05-15T07:36:08.441Z,43.03
2019-05-15T07:38:39.379Z,43.39
2019-05-15T07:41:10.609Z,41.33
2019-05-15T07:43:41.462Z,42.99
2019-05-15T07:46:12.243Z,43.68
2019-05-15T07:48:44.017Z,43.19
2019-05-15T07:51:14.889Z,44.18
2019-05-15T07:53:48.724Z,41.93
2019-05-15T07:56:20.456Z,41.56
2019-05-15T07:58:58.712Z,41.46
2019-05-15T08:01:31.783Z,41.79
2019-05-15T08:04:22.762Z,43.51
2019-05-15T08:06:43.748Z,42.56
2019-05-15T08:09:21.723Z,41.65
2019-05-15T08:11:54.467Z,43.25
2019-05-15T08:14:25.465Z,41.60
2019-05-15T08:16:58.994Z,42.75
2019-05-15T08:19:29.065Z,41.89
2019-05-15T08:21:59.889Z,42.46
2019-05-15T08:24:30.637Z,43.17
2019-05-15T08:27:02.068Z,44.43
2019-05-15T08:29:33.082Z,43.80
2019-05-15T08:32:04.017Z,42.28
2019-05-15T08:34:35.992Z,42.92
2019-05-15T08:37:07.977Z,43.93
2019-05-15T08:39:39.353Z,42.84
2019-05-15T08:42:11.936Z,45.60
2019-05-15T08:44:42.965Z,43.55
2019-05-15T08:47:13.985Z,42.35
2019-05-15T08:49:45.294Z,44.97
2019-05-15T08:52:18.731Z,44.58
2019-05-15T08:54:49.116Z,42.38
2019-05-15T08:57:20.705Z,42.14
2019-05-15T08:59:51.508Z,43.59
2019-05-15T09:02:22.327Z,44.26
2019-05-15T09:04:53.419Z,43.75
2019-05-15T09:07:24.436Z,44.10
2019-05-15T09:09:55.242Z,43.62
2019-05-15T09:12:25.994Z,42.84
2019-05-15T09:14:58.220Z,39.99
2019-05-15T09:17:29.474Z,41.13
2019-05-15T09:20:00.537Z,42.04
2019-05-15T09:22:31.293Z,40.57
2019-05-15T09:25:02.196Z,41.81
2019-05-15T09:27:33.456Z,39.00
2019-05-15T09:30:04.645Z,40.69
2019-05-15T09:32:35.467Z,41.00
2019-05-15T09:35:08.369Z,41.27
2019-05-15T09:37:39.602Z,40.36
2019-05-15T09:40:11.030Z,39.69
2019-05-15T09:42:42.032Z,41.30
2019-05-15T09:45:13.416Z,40.88
2019-05-15T09:47:44.769Z,38.76
2019-05-15T09:50:19.097Z,41.51
2019-05-15T09:52:50.329Z,39.13
2019-05-15T09:55:21.210Z,40.14
2019-05-15T09:57:54.886Z,40.94
2019-05-15T10:00:24.907Z,39.76
2019-05-15T10:02:55.689Z,39.42
2019-05-15T10:05:28.099Z,39.45
2019-05-15T10:07:59.040Z,38.62
2019-05-15T10:10:29.797Z,39.06
2019-05-15T10:13:00.797Z,39.29
2019-05-15T10:15:31.702Z,37.05
2019-05-15T10:18:02.443Z,40.31
2019-05-15T10:20:33.195Z,38.08
2019-05-15T10:23:04.277Z,38.00
2019-05-15T10:25:35.111Z,37.27
2019-05-15T10:28:06.188Z,38.08
2019-05-15T10:30:39.250Z,37.30
2019-05-15T10:33:09.672Z,35.82
2019-05-15T10:35:40.476Z,38.02
2019-05-15T10:38:22.308Z,37.10
2019-05-15T10:41:08.145Z,36.42
2019-05-15T10:43:46.133Z,38.42
2019-05-15T10:46:14.353Z,36.95
2019-05-15T10:48:49.924Z,34.97
2019-05-15T10:51:28.433Z,35.16
2019-05-15T10:54:08.554Z,35.67
2019-05-15T10:56:41.481Z,35.47
2019-05-15T10:59:18.423Z,34.40
2019-05-15T11:01:51.735Z,34.74
2019-05-15T11:04:28.867Z,34.20
2019-05-15T11:07:01.513Z,35.64
2019-05-15T11:09:37.502Z,36.84
2019-05-15T11:12:10.504Z,35.95
2019-05-15T11:14:47.332Z,35.62
2019-05-15T11:17:21.024Z,33.27
2019-05-15T11:20:00.476Z,34.33
2019-05-15T11:22:42.868Z,34.75
2019-05-15T11:25:14.535Z,35.09
2019-05-15T11:27:48.601Z,33.88
2019-05-15T11:30:23.069Z,34.95
2019-05-15T11:32:58.599Z,34.07
2019-05-15T11:35:30.885Z,33.47
2019-05-15T11:38:03.454Z,33.09
2019-05-15T11:40:38.943Z,36.17
2019-05-15T11:43:12.297Z,33.62
2019-05-15T11:45:48.559Z,34.56
2019-05-15T11:48:21.756Z,34.15
2019-05-15T11:50:57.721Z,34.67
2019-05-15T11:53:30.799Z,35.23
2019-05-15T11:56:12.489Z,32.41
2019-05-15T11:58:45.375Z,34.13
2019-05-15T12:01:19.827Z,32.13
2019-05-15T12:03:53.548Z,36.19
2019-05-15T12:06:29.174Z,34.35
2019-05-15T12:09:02.311Z,33.91
2019-05-15T12:11:40.496Z,32.25
2019-05-15T12:14:12.618Z,31.12
2019-05-15T12:17:02.287Z,33.69
2019-05-15T12:19:21.861Z,32.20
2019-05-15T12:21:59.607Z,33.69
2019-05-15T12:27:15.221Z,32.70
2019-05-15T12:29:44.058Z,32.10
2019-05-15T12:32:31.215Z,33.96
2019-05-15T12:35:00.025Z,33.26
2019-05-15T12:37:33.141Z,31.06
2019-05-15T13:00:54.754Z,32.19
2019-05-15T13:03:28.883Z,32.14
2019-05-15T13:06:01.549Z,33.30
2019-05-15T13:08:34.926Z,33.07
2019-05-15T13:11:09.788Z,29.69
2019-05-15T13:13:43.211Z,30.51
2019-05-15T13:16:18.398Z,30.66
2019-05-15T13:18:52.461Z,31.54
2019-05-15T13:21:25.171Z,31.67
2019-05-15T13:23:58.667Z,33.33
2019-05-15T13:26:32.550Z,31.75
2019-05-15T13:29:05.096Z,31.37
2019-05-15T13:31:40.499Z,32.48
2019-05-15T13:34:19.410Z,32.19
2019-05-15T13:36:49.343Z,31.67
2019-05-15T13:39:22.122Z,31.02
2019-05-15T13:41:54.642Z,32.90
2019-05-15T13:44:29.363Z,33.18
2019-05-15T13:47:01.593Z,32.05
2019-05-15T13:49:38.570Z,32.27
2019-05-15T13:52:13.867Z,33.80
2019-05-15T13:54:48.242Z,34.81
2019-05-15T13:57:20.514Z,33.11
2019-05-15T13:59:53.598Z,34.36
2019-05-15T14:02:28.782Z,31.18
2019-05-15T14:05:05.509Z,31.25
2019-05-15T14:07:49.385Z,32.11
2019-05-15T14:10:17.978Z,33.21
2019-05-15T14:12:49.642Z,31.78
2019-05-15T14:15:22.170Z,32.83
2019-05-15T14:17:54.385Z,32.98
2019-05-15T14:20:30.141Z,32.71
2019-05-15T14:23:08.645Z,30.95
2019-05-15T14:25:39.800Z,34.07
2019-05-15T14:28:13.248Z,32.46
2019-05-15T14:30:45.694Z,32.18
2019-05-15T14:33:16.714Z,32.29
2019-05-15T14:35:48.438Z,34.36
2019-05-15T14:38:19.488Z,35.39
2019-05-15T14:40:50.305Z,33.95
2019-05-15T14:43:21.062Z,34.11
2019-05-15T14:45:52.035Z,32.61
2019-05-15T14:48:22.962Z,33.89
2019-05-15T14:50:58.305Z,31.79
2019-05-15T14:53:29.675Z,33.64
2019-05-15T14:56:01.003Z,34.40
2019-05-15T14:58:31.750Z,33.81
2019-05-15T15:01:04.424Z,35.40
2019-05-15T15:03:38.007Z,34.06
2019-05-15T15:06:08.671Z,34.42
2019-05-15T15:08:39.565Z,33.04
2019-05-15T15:11:10.567Z,34.57
2019-05-15T15:13:41.551Z,32.87
2019-05-15T15:16:12.583Z,33.74
2019-05-15T15:18:43.656Z,34.31
2019-05-15T15:21:19.413Z,34.04
2019-05-15T15:23:48.254Z,33.54
2019-05-15T15:26:19.329Z,33.01
2019-05-15T15:28:54.182Z,33.79
2019-05-15T15:31:25.075Z,33.81
2019-05-15T15:33:57.904Z,34.45
2019-05-15T15:36:28.700Z,34.32
2019-05-15T15:39:09.580Z,33.55
2019-05-15T15:41:44.483Z,33.31
2019-05-15T15:44:15.693Z,35.72
2019-05-15T15:46:49.049Z,34.86
2019-05-15T15:49:24.184Z,35.38
2019-05-15T15:51:58.864Z,34.63
2019-05-15T15:57:05.437Z,34.17
2019-05-15T15:59:38.558Z,33.54
2019-05-15T16:02:09.354Z,33.04
2019-05-15T16:04:40.319Z,32.71
2019-05-15T16:07:11.302Z,32.61
2019-05-15T16:09:42.299Z,32.36
2019-05-15T16:12:13.617Z,32.67
2019-05-15T16:14:44.838Z,31.98
2019-05-15T16:17:18.080Z,32.43
2019-05-15T16:19:49.113Z,31.59
2019-05-15T16:22:20.028Z,32.37
2019-05-15T16:24:51.090Z,31.81
2019-05-15T16:27:22.070Z,31.84
2019-05-15T16:29:53.345Z,32.21
2019-05-15T16:32:24.102Z,31.24
2019-05-15T16:34:54.846Z,31.63
2019-05-15T16:37:25.601Z,31.42
2019-05-15T16:39:57.834Z,32.65
2019-05-15T16:42:29.341Z,29.46
2019-05-15T16:45:00.339Z,29.89
2019-05-15T16:47:31.321Z,28.73
2019-05-15T16:50:02.383Z,31.07
2019-05-15T16:52:33.235Z,31.11
2019-05-15T16:55:04.082Z,29.90
2019-05-15T16:57:35.286Z,29.97
2019-05-15T17:00:09.546Z,30.96
2019-05-15T17:02:40.001Z,32.18
2019-05-15T17:05:11.747Z,32.61
2019-05-15T17:07:42.564Z,32.36
2019-05-15T17:10:13.401Z,30.56
2019-05-15T17:12:44.550Z,32.49
2019-05-15T17:15:15.576Z,34.12
2019-05-15T17:17:48.684Z,36.28
2019-05-15T17:20:19.482Z,37.02
2019-05-15T17:22:50.447Z,34.86
2019-05-15T17:25:21.425Z,35.57
2019-05-15T17:27:52.175Z,38.00
2019-05-15T17:30:23.282Z,40.19
2019-05-15T17:32:54.113Z,40.75
2019-05-15T17:35:24.947Z,41.25
2019-05-15T17:37:58.113Z,40.69
2019-05-15T17:40:28.877Z,40.29
2019-05-15T17:43:05.904Z,40.43
2019-05-15T17:45:39.022Z,39.89
2019-05-15T17:48:12.332Z,45.40
2019-05-15T17:50:48.683Z,47.42
2019-05-15T17:53:18.200Z,46.92
2019-05-15T17:55:49.540Z,44.45
2019-05-15T17:58:20.611Z,40.99
2019-05-15T18:00:51.698Z,44.66
2019-05-15T18:03:23.221Z,47.04
2019-05-15T18:05:54.095Z,42.87
2019-05-15T18:08:24.834Z,47.01
2019-05-15T18:10:56.092Z,48.04
2019-05-15T18:13:28.764Z,48.67
2019-05-15T18:16:03.082Z,49.93
2019-05-15T18:18:33.613Z,51.23
2019-05-15T18:21:04.427Z,44.13
2019-05-15T18:23:35.627Z,46.84
2019-05-15T18:26:08.844Z,47.16
2019-05-15T18:28:39.053Z,46.79
2019-05-15T18:31:10.703Z,46.37
2019-05-15T18:33:53.537Z,47.08
2019-05-15T18:36:14.170Z,45.46
2019-05-15T18:38:48.296Z,45.83
2019-05-15T18:41:44.055Z,44.33
2019-05-15T18:44:14.809Z,44.47
2019-05-15T18:47:11.840Z,47.24
2019-05-15T18:50:09.683Z,44.99
2019-05-15T18:52:38.683Z,44.13
2019-05-15T18:55:28.718Z,44.03
2019-05-15T18:57:59.721Z,43.57
2019-05-15T19:00:30.716Z,44.85
2019-05-15T19:03:02.076Z,45.51
2019-05-15T19:05:33.048Z,44.22
2019-05-15T19:08:03.861Z,43.39
2019-05-15T19:10:34.673Z,43.25
2019-05-15T19:13:05.421Z,42.34
2019-05-15T19:15:37.948Z,43.82
2019-05-15T19:18:08.985Z,43.99
2019-05-15T19:20:39.789Z,43.18
2019-05-15T19:23:11.074Z,42.89
2019-05-15T19:25:42.039Z,42.10
2019-05-15T19:28:12.792Z,42.47
2019-05-15T19:34:13.494Z,43.07
2019-05-15T19:36:44.954Z,43.87
2019-05-15T19:39:15.749Z,44.05
2019-05-15T19:41:47.596Z,44.32
2019-05-15T19:44:18.597Z,44.58
2019-05-15T19:46:50.628Z,44.92
2019-05-15T19:49:21.376Z,45.85
2019-05-15T19:51:52.095Z,45.45
2019-05-15T19:54:22.836Z,46.30
2019-05-15T19:56:53.584Z,46.75
2019-05-15T19:59:25.998Z,46.19
2019-05-15T20:02:58.100Z,46.07
2019-05-15T20:05:54.105Z,46.83
2019-05-15T20:08:27.694Z,47.49
2019-05-15T20:10:59.310Z,47.09
2019-05-15T20:13:30.636Z,46.62
2019-05-15T20:16:01.755Z,47.61
2019-05-15T20:18:32.985Z,47.85
2019-05-15T20:21:03.717Z,47.45
2019-05-15T20:23:34.533Z,48.24
2019-05-15T20:26:05.265Z,48.47
2019-05-15T20:32:10.214Z,49.36
2019-05-15T20:34:40.974Z,48.88
2019-05-15T20:37:11.985Z,48.45
2019-05-15T20:39:42.887Z,48.85
2019-05-15T20:42:13.847Z,49.87
2019-05-15T20:44:45.014Z,49.58
2019-05-15T20:47:18.558Z,50.09
2019-05-15T20:49:48.706Z,48.78
2019-05-15T20:52:21.770Z,49.55
2019-05-15T20:54:53.569Z,50.03
2019-05-15T20:57:24.620Z,48.92
2019-05-15T20:59:55.795Z,49.63
2019-05-15T21:02:28.986Z,50.20
2019-05-15T21:05:01.021Z,50.28
2019-05-15T21:07:38.570Z,51.25
2019-05-15T21:10:04.858Z,49.40
2019-05-15T21:12:35.844Z,50.56
2019-05-15T21:15:08.552Z,51.55
2019-05-15T21:17:41.273Z,51.55
2019-05-15T21:20:12.199Z,51.45
2019-05-15T21:22:43.476Z,48.70
2019-05-15T21:25:14.751Z,49.38
2019-05-15T21:27:45.677Z,49.90
2019-05-15T21:30:18.953Z,50.33
2019-05-15T21:32:50.221Z,52.82
2019-05-15T21:35:20.944Z,54.41
2019-05-15T21:37:51.839Z,54.06
2019-05-15T21:40:22.565Z,51.53
2019-05-15T21:42:53.316Z,52.91
2019-05-15T21:45:24.108Z,53.12
2019-05-15T21:48:14.220Z,51.58
2019-05-15T21:50:48.159Z,54.39
2019-05-15T21:53:19.872Z,55.14
2019-05-15T21:55:50.865Z,52.15
2019-05-15T21:58:21.831Z,51.48
2019-05-15T22:00:54.265Z,51.83
2019-05-15T22:03:27.956Z,52.88
2019-05-15T22:05:58.854Z,53.67
2019-05-15T22:08:29.680Z,54.48
2019-05-15T22:15:00.501Z,55.01
2019-05-15T22:17:43.625Z,54.47
2019-05-15T22:20:54.144Z,55.50
2019-05-15T22:23:27.749Z,56.48
2019-05-15T22:26:58.720Z,52.90
2019-05-15T22:29:30.005Z,54.54
2019-05-15T22:32:00.795Z,55.95
2019-05-15T22:34:31.773Z,55.87
2019-05-15T22:37:02.581Z,55.62
2019-05-15T22:39:33.563Z,53.47
2019-05-15T22:42:04.392Z,54.95
2019-05-15T22:44:35.118Z,55.72
2019-05-15T22:47:05.865Z,57.44
2019-05-15T22:49:38.058Z,58.92
2019-05-15T22:52:09.121Z,59.01
2019-05-15T22:54:40.272Z,59.16
2019-05-15T22:57:11.019Z,53.98
2019-05-15T22:59:42.712Z,53.33
2019-05-15T23:02:13.463Z,53.56
2019-05-15T23:04:44.429Z,56.83
2019-05-15T23:07:15.160Z,56.49
2019-05-15T23:09:48.838Z,58.62
2019-05-15T23:12:19.023Z,58.71
2019-05-15T23:14:50.214Z,60.60
2019-05-15T23:17:20.956Z,59.23
2019-05-15T23:19:51.919Z,60.57
2019-05-15T23:22:22.654Z,60.36
2019-05-15T23:24:53.893Z,61.75
2019-05-15T23:27:24.638Z,62.68
2019-05-15T23:30:35.927Z,64.33
2019-05-15T23:36:28.516Z,64.61
2019-05-15T23:39:25.107Z,65.17
2019-05-15T23:41:58.325Z,63.93
2019-05-15T23:47:38.429Z,66.67
2019-05-15T23:50:08.828Z,67.97
2019-05-15T23:52:39.555Z,67.67
2019-05-15T23:55:10.689Z,67.00
2019-05-15T23:57:41.636Z,68.34
